createdAt,value
2018-08-16T00:01:13.481Z,14.78
2018-08-16T00:04:11.369Z,14.69
2018-08-16T00:07:10.334Z,14.70
2018-08-16T00:10:08.605Z,14.74
2018-08-16T00:13:07.700Z,14.75
2018-08-16T00:16:05.909Z,14.70
2018-08-16T00:19:04.332Z,14.63
2018-08-16T00:22:02.357Z,14.64
2018-08-16T00:25:01.663Z,14.69
2018-08-16T00:27:59.565Z,14.70
2018-08-16T00:30:57.592Z,14.65
2018-08-16T00:33:55.825Z,14.60
2018-08-16T00:36:54.106Z,14.57
2018-08-16T00:39:52.268Z,14.53
2018-08-16T00:42:50.448Z,14.56
2018-08-16T00:45:48.406Z,14.53
2018-08-16T00:48:46.313Z,14.58
2018-08-16T00:51:44.621Z,14.64
2018-08-16T00:54:44.841Z,14.67
2018-08-16T00:57:43.849Z,14.61
2018-08-16T01:00:42.087Z,14.64
2018-08-16T01:03:41.353Z,14.62
2018-08-16T01:06:39.525Z,14.60
2018-08-16T01:09:37.593Z,14.48
2018-08-16T01:12:36.563Z,14.30
2018-08-16T01:15:35.593Z,14.15
2018-08-16T01:18:33.716Z,13.99
2018-08-16T01:21:31.858Z,14.02
2018-08-16T01:24:31.748Z,14.03
2018-08-16T01:27:29.830Z,13.97
2018-08-16T01:30:29.222Z,13.98
2018-08-16T01:33:27.397Z,13.98
2018-08-16T01:36:25.552Z,14.00
2018-08-16T01:39:23.846Z,14.04
2018-08-16T01:42:22.290Z,14.16
2018-08-16T01:45:20.517Z,14.17
2018-08-16T01:48:19.566Z,14.09
2018-08-16T01:51:17.930Z,14.02
2018-08-16T01:54:16.478Z,13.95
2018-08-16T01:57:14.424Z,13.97
2018-08-16T02:00:12.573Z,14.07
2018-08-16T02:03:10.643Z,14.06
2018-08-16T02:06:08.809Z,14.04
2018-08-16T02:09:06.947Z,13.77
2018-08-16T02:12:05.079Z,13.65
2018-08-16T02:15:03.184Z,13.61
2018-08-16T02:18:01.248Z,13.52
2018-08-16T02:20:59.365Z,13.50
2018-08-16T02:23:58.317Z,13.43
2018-08-16T02:26:56.517Z,13.38
2018-08-16T02:29:54.577Z,13.38
2018-08-16T02:32:52.986Z,13.42
2018-08-16T02:35:50.846Z,13.44
2018-08-16T02:38:48.969Z,13.43
2018-08-16T02:41:48.379Z,13.49
2018-08-16T02:44:46.236Z,13.60
2018-08-16T02:47:44.226Z,13.59
2018-08-16T02:50:42.687Z,13.54
2018-08-16T02:53:41.757Z,13.53
2018-08-16T02:56:40.965Z,13.52
2018-08-16T02:59:39.321Z,13.49
2018-08-16T03:02:37.555Z,13.56
2018-08-16T03:05:35.697Z,13.44
2018-08-16T03:08:34.002Z,13.47
2018-08-16T03:11:32.242Z,13.51
2018-08-16T03:14:30.111Z,13.58
2018-08-16T03:17:28.301Z,13.60
2018-08-16T03:20:26.320Z,13.55
2018-08-16T03:23:24.887Z,13.49
2018-08-16T03:26:22.956Z,13.50
2018-08-16T03:29:20.936Z,13.38
2018-08-16T03:32:19.175Z,13.27
2018-08-16T03:35:17.494Z,13.16
2018-08-16T03:38:16.220Z,13.01
2018-08-16T03:41:13.985Z,12.85
2018-08-16T03:44:11.958Z,12.88
2018-08-16T03:47:10.215Z,12.91
2018-08-16T03:50:08.380Z,12.89
2018-08-16T03:53:09.396Z,12.87
2018-08-16T03:56:07.261Z,12.82
2018-08-16T03:59:05.276Z,12.71
2018-08-16T04:02:03.456Z,12.63
2018-08-16T04:05:02.556Z,12.57
2018-08-16T04:08:00.870Z,12.69
2018-08-16T04:10:58.988Z,12.83
2018-08-16T04:13:56.941Z,12.91
2018-08-16T04:16:56.104Z,13.04
2018-08-16T04:19:54.202Z,13.14
2018-08-16T04:22:52.445Z,13.17
2018-08-16T04:25:50.689Z,13.12
2018-08-16T04:28:48.676Z,13.12
2018-08-16T04:31:47.139Z,13.13
2018-08-16T04:34:46.237Z,13.18
2018-08-16T04:37:44.369Z,13.24
2018-08-16T04:40:42.952Z,13.40
2018-08-16T04:43:40.729Z,13.60
2018-08-16T04:46:39.024Z,13.74
2018-08-16T04:49:38.060Z,13.84
2018-08-16T04:52:37.058Z,14.02
2018-08-16T04:55:36.222Z,14.07
2018-08-16T04:58:34.345Z,14.11
2018-08-16T05:01:32.753Z,14.14
2018-08-16T05:04:30.865Z,14.24
2018-08-16T05:07:29.086Z,14.40
2018-08-16T05:10:28.269Z,14.52
2018-08-16T05:13:26.484Z,14.70
2018-08-16T05:16:25.013Z,14.90
2018-08-16T05:19:23.398Z,15.12
2018-08-16T05:22:22.864Z,15.29
2018-08-16T05:25:21.954Z,15.40
2018-08-16T05:28:20.124Z,15.57
2018-08-16T05:31:18.262Z,15.60
2018-08-16T05:34:16.530Z,15.79
2018-08-16T05:37:14.368Z,15.94
2018-08-16T05:40:12.466Z,16.13
2018-08-16T05:43:10.833Z,16.19
2018-08-16T05:46:08.861Z,16.41
2018-08-16T05:49:06.831Z,16.49
2018-08-16T05:52:05.152Z,16.58
2018-08-16T05:55:03.459Z,16.75
2018-08-16T05:58:01.831Z,16.81
2018-08-16T06:01:00.392Z,16.90
2018-08-16T06:03:58.471Z,17.07
2018-08-16T06:06:57.470Z,17.26
2018-08-16T06:09:55.801Z,17.35
2018-08-16T06:12:54.169Z,17.46
2018-08-16T06:15:52.900Z,17.60
2018-08-16T06:18:51.093Z,17.73
2018-08-16T06:21:49.938Z,17.88
2018-08-16T06:24:47.944Z,18.03
2018-08-16T06:27:46.106Z,18.14
2018-08-16T06:30:44.269Z,18.31
2018-08-16T06:33:45.310Z,18.47
2018-08-16T06:36:43.410Z,18.61
2018-08-16T06:39:41.317Z,18.77
2018-08-16T06:42:39.384Z,18.92
2018-08-16T06:45:37.450Z,19.08
2018-08-16T06:48:35.499Z,19.28
2018-08-16T06:51:34.719Z,19.42
2018-08-16T06:54:32.840Z,19.54
2018-08-16T06:57:30.915Z,19.70
2018-08-16T07:00:28.759Z,19.82
2018-08-16T07:03:28.053Z,19.97
2018-08-16T07:06:26.004Z,20.07
2018-08-16T07:09:24.283Z,20.23
2018-08-16T07:12:22.555Z,20.36
2018-08-16T07:15:23.662Z,20.49
2018-08-16T07:18:22.247Z,20.60
2018-08-16T07:21:20.420Z,20.72
2018-08-16T07:24:18.855Z,20.86
2018-08-16T07:27:17.144Z,20.98
2018-08-16T07:30:15.288Z,21.11
2018-08-16T07:33:14.274Z,21.24
2018-08-16T07:36:12.372Z,21.34
2018-08-16T07:39:11.417Z,21.44
2018-08-16T07:42:09.575Z,21.51
2018-08-16T07:45:07.495Z,21.64
2018-08-16T07:48:05.709Z,21.77
2018-08-16T07:51:04.112Z,21.95
2018-08-16T07:54:02.246Z,22.03
2018-08-16T07:57:00.456Z,22.16
2018-08-16T07:59:58.248Z,22.28
2018-08-16T08:02:56.785Z,22.38
2018-08-16T08:05:54.795Z,22.50
2018-08-16T08:08:54.148Z,22.63
2018-08-16T08:11:52.440Z,22.79
2018-08-16T08:14:51.302Z,22.88
2018-08-16T08:17:49.527Z,23.07
2018-08-16T08:20:47.245Z,23.20
2018-08-16T08:23:45.376Z,23.20
2018-08-16T08:26:43.597Z,23.23
2018-08-16T08:29:42.639Z,23.38
2018-08-16T08:32:40.729Z,23.52
2018-08-16T08:35:38.772Z,23.71
2018-08-16T08:38:38.240Z,23.80
2018-08-16T08:41:36.442Z,23.88
2018-08-16T08:44:36.961Z,23.91
2018-08-16T08:47:42.951Z,23.99
2018-08-16T08:50:41.997Z,23.96
2018-08-16T08:54:59.375Z,24.14
2018-08-16T08:59:12.225Z,24.32
2018-08-16T09:02:10.410Z,24.56
2018-08-16T09:05:08.608Z,24.68
2018-08-16T09:08:07.621Z,24.68
2018-08-16T09:11:29.624Z,24.88
2018-08-16T09:14:39.971Z,25.01
2018-08-16T09:17:38.517Z,25.00
2018-08-16T09:20:36.584Z,25.04
2018-08-16T09:23:35.359Z,25.16
2018-08-16T09:26:40.086Z,25.12
2018-08-16T09:30:54.521Z,25.03
2018-08-16T09:34:05.718Z,24.87
2018-08-16T09:37:04.062Z,24.98
2018-08-16T09:40:01.966Z,25.05
2018-08-16T09:43:00.235Z,25.27
2018-08-16T09:47:19.122Z,25.26
2018-08-16T09:50:17.251Z,25.34
2018-08-16T09:53:15.327Z,25.49
2018-08-16T09:56:13.373Z,25.54
2018-08-16T09:59:12.364Z,25.55
2018-08-16T10:02:10.594Z,25.61
2018-08-16T10:05:08.596Z,25.87
2018-08-16T10:08:06.579Z,26.08
2018-08-16T10:11:05.060Z,26.38
2018-08-16T10:14:06.044Z,26.79
2018-08-16T10:17:05.267Z,26.86
2018-08-16T10:20:03.405Z,27.13
2018-08-16T10:23:03.089Z,27.28
2018-08-16T10:26:01.362Z,27.22
2018-08-16T10:28:59.933Z,27.10
2018-08-16T10:31:58.349Z,27.12
2018-08-16T10:34:56.570Z,27.00
2018-08-16T10:37:54.644Z,27.01
2018-08-16T10:40:53.191Z,27.17
2018-08-16T10:43:59.658Z,27.08
2018-08-16T10:46:57.923Z,26.91
2018-08-16T10:49:55.766Z,26.90
2018-08-16T10:52:53.960Z,26.66
2018-08-16T10:55:53.929Z,26.53
2018-08-16T10:58:52.014Z,26.32
2018-08-16T11:01:51.210Z,26.31
2018-08-16T11:04:52.194Z,26.33
2018-08-16T11:07:50.480Z,26.41
2018-08-16T11:10:48.416Z,26.45
2018-08-16T11:13:46.621Z,26.56
2018-08-16T11:16:44.713Z,26.59
2018-08-16T11:19:42.809Z,26.60
2018-08-16T11:22:41.240Z,26.66
2018-08-16T11:25:40.066Z,27.09
2018-08-16T11:28:37.772Z,28.37
2018-08-16T11:31:35.865Z,28.94
2018-08-16T11:34:33.832Z,28.96
2018-08-16T11:37:31.682Z,28.99
2018-08-16T11:40:29.887Z,29.11
2018-08-16T11:43:28.112Z,28.94
2018-08-16T11:46:26.409Z,28.74
2018-08-16T11:49:24.645Z,28.46
2018-08-16T11:52:22.794Z,28.81
2018-08-16T11:55:20.848Z,28.96
2018-08-16T11:58:19.020Z,28.86
2018-08-16T12:01:17.093Z,28.81
2018-08-16T12:04:14.944Z,30.10
2018-08-16T12:07:13.299Z,30.36
2018-08-16T12:10:11.324Z,30.14
2018-08-16T12:13:09.523Z,30.05
2018-08-16T12:16:07.716Z,31.08
2018-08-16T12:19:05.757Z,31.20
2018-08-16T12:22:04.045Z,32.00
2018-08-16T12:25:01.874Z,33.13
2018-08-16T12:27:59.855Z,33.93
2018-08-16T12:30:59.026Z,34.12
2018-08-16T12:33:57.377Z,33.31
2018-08-16T12:36:55.542Z,32.68
2018-08-16T12:39:53.632Z,32.39
2018-08-16T12:42:52.558Z,32.11
2018-08-16T12:45:51.791Z,31.91
2018-08-16T12:48:49.958Z,32.02
2018-08-16T12:51:48.097Z,31.56
2018-08-16T12:54:46.157Z,31.29
2018-08-16T12:57:45.554Z,31.16
2018-08-16T13:00:43.963Z,30.70
2018-08-16T13:03:42.245Z,30.53
2018-08-16T13:06:40.258Z,30.32
2018-08-16T13:09:39.614Z,30.24
2018-08-16T13:12:37.869Z,30.34
2018-08-16T13:15:36.981Z,30.36
2018-08-16T13:18:35.255Z,30.30
2018-08-16T13:21:33.426Z,30.28
2018-08-16T13:24:32.454Z,30.29
2018-08-16T13:27:31.652Z,30.37
2018-08-16T13:30:29.604Z,30.40
2018-08-16T13:33:27.668Z,31.31
2018-08-16T13:36:25.557Z,32.56
2018-08-16T13:39:24.735Z,33.80
2018-08-16T13:42:23.965Z,33.37
2018-08-16T13:45:29.975Z,33.02
2018-08-16T13:48:28.236Z,32.67
2018-08-16T13:51:27.449Z,31.71
2018-08-16T13:54:25.969Z,31.10
2018-08-16T13:57:24.230Z,30.71
2018-08-16T14:00:23.224Z,30.46
2018-08-16T14:03:22.318Z,30.36
2018-08-16T14:06:32.865Z,30.21
2018-08-16T14:09:01.688Z,30.12
2018-08-16T14:11:30.310Z,30.07
2018-08-16T14:13:59.014Z,30.20
2018-08-16T14:16:27.623Z,30.20
2018-08-16T14:18:56.354Z,30.28
2018-08-16T14:21:25.048Z,30.10
2018-08-16T14:23:53.724Z,30.07
2018-08-16T14:26:22.436Z,30.13
2018-08-16T14:28:51.107Z,30.19
2018-08-16T14:31:19.828Z,30.31
2018-08-16T14:33:48.388Z,30.48
2018-08-16T14:36:16.977Z,30.59
2018-08-16T14:38:45.650Z,30.79
2018-08-16T14:41:14.482Z,31.08
2018-08-16T14:43:43.142Z,32.04
2018-08-16T14:46:11.950Z,32.31
2018-08-16T14:48:41.069Z,32.41
2018-08-16T14:51:09.841Z,32.11
2018-08-16T14:53:38.653Z,32.02
2018-08-16T14:56:07.734Z,31.80
2018-08-16T14:58:36.413Z,31.66
2018-08-16T15:01:10.660Z,31.46
2018-08-16T15:03:39.448Z,31.03
2018-08-16T15:06:08.468Z,30.80
2018-08-16T15:08:38.204Z,30.71
2018-08-16T15:11:07.939Z,30.51
2018-08-16T15:13:36.602Z,30.19
2018-08-16T15:16:05.375Z,29.81
2018-08-16T15:18:34.043Z,29.45
2018-08-16T15:21:02.741Z,29.25
2018-08-16T15:23:32.596Z,29.18
2018-08-16T15:26:01.589Z,29.63
2018-08-16T15:28:31.227Z,30.37
2018-08-16T15:31:00.177Z,31.04
2018-08-16T15:33:28.733Z,31.60
2018-08-16T15:35:57.403Z,32.34
2018-08-16T15:38:26.026Z,32.84
2018-08-16T15:40:54.668Z,33.11
2018-08-16T15:43:23.514Z,33.41
2018-08-16T15:45:52.273Z,33.52
2018-08-16T15:48:20.991Z,33.28
2018-08-16T15:50:49.876Z,33.60
2018-08-16T15:53:18.555Z,33.54
2018-08-16T15:55:47.442Z,33.76
2018-08-16T15:58:16.156Z,33.79
2018-08-16T16:00:44.817Z,33.65
2018-08-16T16:03:13.737Z,33.18
2018-08-16T16:05:42.507Z,32.54
2018-08-16T16:08:11.252Z,31.90
2018-08-16T16:10:40.022Z,31.52
2018-08-16T16:13:08.831Z,31.58
2018-08-16T16:15:37.482Z,31.69
2018-08-16T16:18:06.448Z,31.74
2018-08-16T16:20:35.637Z,31.46
2018-08-16T16:23:04.361Z,31.14
2018-08-16T16:25:33.982Z,30.86
2018-08-16T16:28:03.125Z,30.50
2018-08-16T16:30:32.728Z,30.25
2018-08-16T16:33:01.365Z,30.06
2018-08-16T16:35:30.031Z,29.83
2018-08-16T16:37:59.542Z,29.54
2018-08-16T16:40:29.416Z,29.34
2018-08-16T16:42:58.093Z,29.18
2018-08-16T16:45:26.854Z,29.07
2018-08-16T16:47:55.692Z,28.87
2018-08-16T16:50:24.424Z,28.68
2018-08-16T16:52:53.167Z,28.42
2018-08-16T16:55:21.773Z,28.22
2018-08-16T16:57:50.664Z,28.01
2018-08-16T17:00:19.330Z,27.78
2018-08-16T17:02:48.012Z,27.60
2018-08-16T17:05:16.695Z,27.48
2018-08-16T17:07:45.404Z,27.43
2018-08-16T17:10:14.656Z,27.43
2018-08-16T17:12:44.161Z,27.56
2018-08-16T17:15:12.929Z,27.72
2018-08-16T17:17:42.002Z,27.75
2018-08-16T17:20:11.640Z,27.84
2018-08-16T17:22:40.708Z,27.86
2018-08-16T17:25:09.399Z,27.75
2018-08-16T17:27:38.012Z,27.58
2018-08-16T17:30:07.309Z,27.39
2018-08-16T17:32:35.885Z,27.18
2018-08-16T17:35:05.299Z,27.04
2018-08-16T17:37:34.052Z,26.93
2018-08-16T17:40:03.004Z,26.86
2018-08-16T17:42:31.835Z,26.60
2018-08-16T17:45:00.465Z,26.32
2018-08-16T17:47:29.789Z,26.12
2018-08-16T17:49:58.604Z,25.91
2018-08-16T17:52:27.401Z,25.66
2018-08-16T17:54:56.465Z,25.52
2018-08-16T17:57:25.097Z,25.45
2018-08-16T17:59:53.871Z,25.31
2018-08-16T18:02:22.552Z,25.22
2018-08-16T18:04:51.148Z,25.03
2018-08-16T18:07:19.929Z,24.82
2018-08-16T18:09:48.598Z,24.57
2018-08-16T18:12:17.413Z,24.37
2018-08-16T18:14:46.061Z,24.10
2018-08-16T18:17:15.377Z,23.89
2018-08-16T18:19:43.986Z,23.76
2018-08-16T18:22:12.581Z,23.65
2018-08-16T18:24:41.220Z,23.49
2018-08-16T18:27:09.845Z,23.36
2018-08-16T18:29:38.475Z,23.20
2018-08-16T18:32:07.307Z,23.07
2018-08-16T18:34:37.295Z,22.98
2018-08-16T18:37:05.971Z,22.81
2018-08-16T18:39:36.328Z,22.67
2018-08-16T18:42:04.994Z,22.56
2018-08-16T18:44:33.674Z,22.52
2018-08-16T18:47:02.348Z,22.43
2018-08-16T18:49:30.932Z,22.31
2018-08-16T18:52:00.785Z,22.21
2018-08-16T18:54:29.558Z,22.07
2018-08-16T18:56:58.156Z,21.97
2018-08-16T18:59:27.115Z,21.80
2018-08-16T19:01:55.784Z,21.68
2018-08-16T19:04:24.412Z,21.56
2018-08-16T19:06:53.378Z,21.46
2018-08-16T19:09:22.147Z,21.35
2018-08-16T19:11:50.973Z,21.29
2018-08-16T19:14:19.751Z,21.24
2018-08-16T19:16:48.358Z,21.06
2018-08-16T19:19:17.015Z,20.87
2018-08-16T19:21:45.742Z,20.72
2018-08-16T19:24:14.395Z,20.60
2018-08-16T19:26:43.009Z,20.50
2018-08-16T19:29:11.745Z,20.43
2018-08-16T19:31:40.588Z,20.35
2018-08-16T19:34:09.393Z,20.26
2018-08-16T19:36:38.081Z,20.21
2018-08-16T19:39:09.917Z,20.18
2018-08-16T19:41:38.614Z,20.14
2018-08-16T19:44:07.436Z,20.07
2018-08-16T19:46:36.322Z,20.09
2018-08-16T19:49:05.601Z,20.02
2018-08-16T19:51:34.243Z,19.93
2018-08-16T19:54:02.939Z,19.82
2018-08-16T19:56:31.765Z,19.73
2018-08-16T19:59:00.484Z,19.70
2018-08-16T20:01:29.437Z,19.68
2018-08-16T20:03:59.223Z,19.64
2018-08-16T20:06:27.823Z,19.60
2018-08-16T20:08:56.690Z,19.59
2018-08-16T20:11:25.293Z,19.57
2018-08-16T20:13:54.621Z,19.60
2018-08-16T20:16:23.932Z,19.63
2018-08-16T20:18:52.702Z,19.60
2018-08-16T20:21:21.593Z,19.49
2018-08-16T20:23:50.230Z,19.25
2018-08-16T20:26:18.915Z,19.06
2018-08-16T20:28:47.856Z,18.98
2018-08-16T20:31:16.661Z,18.88
2018-08-16T20:33:45.413Z,18.82
2018-08-16T20:36:14.293Z,18.78
2018-08-16T20:38:43.505Z,18.77
2018-08-16T20:41:12.510Z,18.71
2018-08-16T20:43:41.201Z,18.62
2018-08-16T20:46:09.838Z,18.61
2018-08-16T20:48:38.580Z,18.60
2018-08-16T20:51:07.495Z,18.60
2018-08-16T20:53:36.142Z,18.58
2018-08-16T20:56:05.457Z,18.53
2018-08-16T20:58:34.077Z,18.43
2018-08-16T21:01:02.771Z,18.39
2018-08-16T21:03:32.134Z,18.35
2018-08-16T21:06:00.793Z,18.28
2018-08-16T21:08:29.421Z,18.15
2018-08-16T21:10:58.123Z,17.99
2018-08-16T21:13:26.865Z,17.85
2018-08-16T21:15:55.504Z,17.75
2018-08-16T21:18:24.222Z,17.67
2018-08-16T21:20:52.972Z,17.62
2018-08-16T21:23:21.719Z,17.53
2018-08-16T21:25:50.576Z,17.45
2018-08-16T21:28:19.333Z,17.36
2018-08-16T21:30:47.985Z,17.29
2018-08-16T21:33:16.676Z,17.27
2018-08-16T21:35:45.320Z,17.20
2018-08-16T21:38:15.136Z,17.16
2018-08-16T21:40:44.080Z,17.09
2018-08-16T21:43:12.733Z,17.07
2018-08-16T21:45:42.130Z,17.02
2018-08-16T21:48:10.913Z,16.97
2018-08-16T21:50:39.783Z,16.93
2018-08-16T21:53:09.440Z,16.90
2018-08-16T21:55:38.115Z,16.88
2018-08-16T21:58:06.731Z,16.86
2018-08-16T22:00:56.639Z,16.87
2018-08-16T22:03:27.658Z,16.88
2018-08-16T22:06:03.531Z,16.91
2018-08-16T22:08:45.902Z,16.97
2018-08-16T22:11:14.603Z,16.97
2018-08-16T22:13:43.274Z,16.94
2018-08-16T22:16:12.248Z,16.96
2018-08-16T22:18:41.230Z,16.97
2018-08-16T22:21:10.943Z,16.93
2018-08-16T22:23:39.716Z,16.94
2018-08-16T22:26:08.502Z,16.92
2018-08-16T22:28:37.140Z,16.88
2018-08-16T22:31:05.923Z,16.80
2018-08-16T22:33:34.732Z,16.75
2018-08-16T22:36:03.432Z,16.73
2018-08-16T22:38:32.206Z,16.74
2018-08-16T22:41:00.822Z,16.71
2018-08-16T22:43:30.137Z,16.67
2018-08-16T22:45:58.777Z,16.62
2018-08-16T22:48:27.385Z,16.60
2018-08-16T22:50:56.126Z,16.62
2018-08-16T22:53:24.892Z,16.64
2018-08-16T22:55:53.683Z,16.65
2018-08-16T22:58:22.361Z,16.64
2018-08-16T23:00:50.908Z,16.67
2018-08-16T23:03:19.589Z,16.69
2018-08-16T23:05:48.416Z,16.77
2018-08-16T23:08:17.096Z,16.79
2018-08-16T23:10:45.822Z,16.82
2018-08-16T23:13:14.614Z,16.84
2018-08-16T23:15:43.756Z,16.87
2018-08-16T23:18:12.492Z,16.86
2018-08-16T23:20:41.080Z,16.84
2018-08-16T23:23:09.667Z,16.82
2018-08-16T23:25:38.264Z,16.75
2018-08-16T23:28:06.873Z,16.71
2018-08-16T23:30:36.624Z,16.67
2018-08-16T23:33:05.424Z,16.69
2018-08-16T23:35:35.076Z,16.74
2018-08-16T23:38:03.905Z,16.79
2018-08-16T23:40:32.697Z,16.81
2018-08-16T23:43:01.389Z,16.81
2018-08-16T23:45:30.075Z,16.82
2018-08-16T23:48:09.752Z,16.79
2018-08-16T23:50:38.470Z,16.78
2018-08-16T23:53:07.303Z,16.80
2018-08-16T23:55:36.936Z,16.77
2018-08-16T23:58:05.766Z,16.73
